Burton, United Kingdom
Current Conditions -  °F | °C
As of 3:50 AM on Sunday 23 Nov 2014 (Local Time) from EGXP Reporting Station
Broken Clouds Broken Clouds  
Wind Chill: 43°   Ceiling: 4600
Heat Index: 46°   Visibility: 2.6mi
Dew Point: 46°   Wind: 7mph
Humidity: 100%   Direction: 280°W
Pressure: 29.97"   Gusts: NA
Location:  53.27°N, 0.57°W
Report Text: EGXP 230350Z AUTO 28006KT 4300 // FEW040/// BKN046/// 08/08 Q1015
Loading
Personal Weather Stations






























Interactive Weather Map New forecast layout! Learn more

10-Day Weather Forecast

Advertisements
Track Severe Weather on mobile